Time;durP1;ratioP1;P1;durP2;ratioP2;P2;SDS_P1;SDS_P2;PMS_P1;PMS_P2;Temp;Humidity;BMP_temperature;BMP_pressure;BME280_temperature;BME280_humidity;BME280_pressure;Samples;Min_cycle;Max_cycle;Signal;HPM_P1;HPM_P2
2023/01/08 00:02:22;;;;;;;9.03;7.27;;;8.30;99.90;;;;;;5093118;28;20450;-53
2023/01/08 00:04:49;;;;;;;7.07;6.27;;;8.30;99.90;;;;;;5093235;28;20756;-54
2023/01/08 00:07:16;;;;;;;9.20;6.73;;;8.30;99.90;;;;;;5091402;28;20447;-53
2023/01/08 00:09:43;;;;;;;8.43;7.00;;;8.20;99.90;;;;;;5092716;28;20487;-54
2023/01/08 00:12:10;;;;;;;7.50;6.70;;;8.30;99.90;;;;;;5093136;28;20493;-54
2023/01/08 00:14:37;;;;;;;7.93;6.77;;;8.30;99.90;;;;;;5091260;28;20439;-54
2023/01/08 00:17:07;;;;;;;7.43;6.80;;;8.30;99.90;;;;;;5092562;28;20448;-54
2023/01/08 00:19:34;;;;;;;8.17;6.37;;;8.30;99.90;;;;;;5093197;28;20453;-55
2023/01/08 00:22:01;;;;;;;8.03;6.67;;;8.30;99.90;;;;;;5090912;28;20539;-54
2023/01/08 00:24:28;;;;;;;6.93;6.20;;;8.30;99.90;;;;;;5092721;28;20447;-54
2023/01/08 00:26:55;;;;;;;7.33;6.60;;;8.30;99.90;;;;;;5093106;28;20451;-54
2023/01/08 00:29:22;;;;;;;6.93;6.23;;;8.40;99.90;;;;;;5090986;28;20938;-56
2023/01/08 00:31:49;;;;;;;7.30;6.57;;;8.30;99.90;;;;;;5092201;28;20471;-55
2023/01/08 00:34:18;;;;;;;7.10;6.27;;;8.30;99.90;;;;;;5092675;28;20550;-54
2023/01/08 00:36:45;;;;;;;9.53;7.17;;;8.30;99.90;;;;;;5091314;28;20454;-54
2023/01/08 00:39:12;;;;;;;7.30;6.60;;;8.30;99.90;;;;;;5092289;28;20462;-54
2023/01/08 00:41:43;;;;;;;7.50;6.67;;;8.30;99.90;;;;;;5092560;28;20470;-54
2023/01/08 00:44:10;;;;;;;8.00;7.20;;;8.30;99.90;;;;;;5090581;28;20803;-54
2023/01/08 00:46:37;;;;;;;6.73;6.03;;;8.40;99.90;;;;;;5092272;28;20517;-54
2023/01/08 00:49:04;;;;;;;8.33;7.17;;;8.30;99.90;;;;;;5092842;28;20452;-54
2023/01/08 00:51:32;;;;;;;9.87;6.20;;;8.30;99.90;;;;;;5090608;28;20490;-54
2023/01/08 00:53:59;;;;;;;8.17;7.33;;;8.30;99.90;;;;;;5092406;28;20457;-54
2023/01/08 00:56:27;;;;;;;7.03;6.33;;;8.20;99.90;;;;;;5092240;28;20817;-54
2023/01/08 00:58:54;;;;;;;7.70;6.73;;;8.30;99.90;;;;;;5090716;28;20450;-54
2023/01/08 01:01:21;;;;;;;9.53;7.00;;;8.20;99.90;;;;;;5094719;28;20463;-54
2023/01/08 01:03:48;;;;;;;8.57;7.67;;;8.20;99.90;;;;;;5096472;28;20882;-55
2023/01/08 01:06:15;;;;;;;9.23;7.60;;;8.20;99.90;;;;;;5094522;28;20450;-54
2023/01/08 01:08:44;;;;;;;7.50;6.80;;;8.20;99.90;;;;;;5096427;28;20450;-57
2023/01/08 01:11:19;;;;;;;6.27;5.67;;;8.10;99.90;;;;;;5096583;28;20575;-54
2023/01/08 01:13:46;;;;;;;8.90;6.63;;;8.10;99.90;;;;;;5094133;28;20434;-54
2023/01/08 01:16:13;;;;;;;8.73;7.20;;;8.10;99.90;;;;;;5096477;28;20447;-54
2023/01/08 01:18:40;;;;;;;10.33;7.33;;;8.10;99.90;;;;;;5096537;28;20443;-55
2023/01/08 01:21:12;;;;;;;8.50;7.30;;;8.10;99.90;;;;;;5094194;28;20463;-54
2023/01/08 01:23:39;;;;;;;6.70;5.97;;;8.20;99.90;;;;;;5096141;28;20443;-54
2023/01/08 01:26:15;;;;;;;6.70;6.07;;;8.30;99.90;;;;;;5095543;28;20816;-54
2023/01/08 01:28:43;;;;;;;7.60;6.80;;;8.20;99.90;;;;;;5094033;28;20477;-56
2023/01/08 01:31:11;;;;;;;7.30;6.60;;;8.30;99.90;;;;;;5095557;28;20856;-54
2023/01/08 01:33:39;;;;;;;8.80;7.73;;;8.10;99.90;;;;;;5095930;28;20427;-54
2023/01/08 01:36:07;;;;;;;6.97;6.30;;;8.10;99.90;;;;;;5093661;28;20447;-54
2023/01/08 01:38:34;;;;;;;7.43;6.77;;;8.10;99.90;;;;;;5095945;28;20554;-54
2023/01/08 01:41:01;;;;;;;7.00;6.37;;;8.10;99.90;;;;;;5095660;28;20503;-54
2023/01/08 01:43:39;;;;;;;7.50;6.00;;;8.10;99.90;;;;;;5094004;28;20497;-55
2023/01/08 01:46:22;;;;;;;8.70;6.47;;;8.20;99.90;;;;;;5095542;28;20471;-53
2023/01/08 01:48:51;;;;;;;6.90;6.10;;;8.20;99.90;;;;;;5093711;28;20427;-53
2023/01/08 01:51:19;;;;;;;6.47;5.87;;;8.30;99.90;;;;;;5095748;28;20847;-53
2023/01/08 01:53:47;;;;;;;6.23;5.57;;;8.30;99.90;;;;;;5095308;28;20443;-54
2023/01/08 01:56:14;;;;;;;7.90;7.10;;;8.20;99.90;;;;;;5093359;28;20443;-54
2023/01/08 01:58:42;;;;;;;7.17;6.10;;;8.20;99.90;;;;;;5095835;28;20444;-54
2023/01/08 02:01:10;;;;;;;7.67;5.60;;;8.20;99.90;;;;;;5094872;28;20973;-54
2023/01/08 02:03:39;;;;;;;6.20;5.60;;;8.30;99.90;;;;;;5093380;28;20452;-53
2023/01/08 02:06:23;;;;;;;7.13;6.43;;;8.30;99.90;;;;;;5095578;28;20450;-54
2023/01/08 02:08:57;;;;;;;6.40;5.80;;;8.30;99.90;;;;;;5095550;28;20466;-53
2023/01/08 02:11:30;;;;;;;6.83;6.00;;;8.30;99.90;;;;;;5092848;28;20486;-54
2023/01/08 02:14:04;;;;;;;10.30;6.50;;;8.30;99.90;;;;;;5095361;28;20443;-54
2023/01/08 02:16:39;;;;;;;6.87;6.17;;;8.30;99.90;;;;;;5094975;28;20428;-54
2023/01/08 02:19:16;;;;;;;6.57;5.97;;;8.40;99.90;;;;;;5093130;28;20431;-54
2023/01/08 02:21:58;;;;;;;7.17;6.47;;;8.40;99.90;;;;;;5094976;28;20838;-54
2023/01/08 02:24:39;;;;;;;6.30;5.70;;;8.50;99.90;;;;;;5095100;28;20449;-54
2023/01/08 02:27:08;;;;;;;6.47;5.87;;;8.50;99.90;;;;;;5093370;28;20456;-54
2023/01/08 02:29:36;;;;;;;5.43;4.93;;;8.50;99.90;;;;;;5095156;28;20450;-54
2023/01/08 02:32:03;;;;;;;7.83;6.10;;;8.50;99.90;;;;;;5094388;28;20479;-54
2023/01/08 02:34:31;;;;;;;5.53;5.03;;;8.60;99.90;;;;;;5092776;28;20785;-54
2023/01/08 02:36:59;;;;;;;9.20;5.60;;;8.50;99.90;;;;;;5094809;28;20812;-54
2023/01/08 02:39:51;;;;;;;6.60;5.93;;;8.50;99.90;;;;;;5094359;28;20462;-54
2023/01/08 02:42:27;;;;;;;6.00;5.40;;;8.50;99.90;;;;;;5092906;28;20755;-54
2023/01/08 02:45:04;;;;;;;9.03;5.87;;;8.40;99.90;;;;;;5094312;28;20431;-54
2023/01/08 02:47:36;;;;;;;5.53;5.03;;;8.40;99.90;;;;;;5094533;28;20438;-55
2023/01/08 02:50:13;;;;;;;6.70;5.73;;;8.50;99.90;;;;;;5092572;28;20475;-54
2023/01/08 02:52:50;;;;;;;5.47;4.97;;;8.50;99.90;;;;;;5094083;28;20423;-54
2023/01/08 02:55:19;;;;;;;6.73;6.10;;;8.50;99.90;;;;;;5092419;28;20434;-54
2023/01/08 02:57:49;;;;;;;5.53;5.03;;;8.50;99.90;;;;;;5094274;28;20435;-54
2023/01/08 03:00:17;;;;;;;6.37;5.73;;;8.50;99.90;;;;;;5094107;28;20516;-54
2023/01/08 03:02:44;;;;;;;6.50;5.50;;;8.50;99.90;;;;;;5092299;28;20486;-54
2023/01/08 03:05:20;;;;;;;6.10;5.50;;;8.50;99.90;;;;;;5094173;28;20450;-54
2023/01/08 03:07:48;;;;;;;5.17;4.67;;;8.50;99.90;;;;;;5094112;28;20806;-54
2023/01/08 03:10:15;;;;;;;5.37;4.97;;;8.50;99.90;;;;;;5092392;28;20464;-54
2023/01/08 03:12:53;;;;;;;6.20;5.60;;;8.50;99.90;;;;;;5093829;28;21052;-54
2023/01/08 03:15:25;;;;;;;6.47;5.40;;;8.50;99.90;;;;;;5094139;28;20423;-54
2023/01/08 03:17:57;;;;;;;6.63;5.30;;;8.50;99.90;;;;;;5092381;28;20428;-54
2023/01/08 03:20:25;;;;;;;6.20;5.60;;;8.40;99.90;;;;;;5093796;28;20463;-54
2023/01/08 03:22:55;;;;;;;6.30;5.33;;;8.50;99.90;;;;;;5093224;28;20452;-54
2023/01/08 03:25:26;;;;;;;6.43;5.07;;;8.50;99.90;;;;;;5092318;28;20439;-54
2023/01/08 03:27:59;;;;;;;5.93;5.23;;;8.50;99.90;;;;;;5093810;28;20542;-54
2023/01/08 03:30:28;;;;;;;10.17;5.90;;;8.50;99.90;;;;;;5093499;28;20479;-54
2023/01/08 03:32:59;;;;;;;5.67;5.17;;;8.50;99.90;;;;;;5091580;28;20448;-54
2023/01/08 03:35:28;;;;;;;5.23;4.73;;;8.50;99.90;;;;;;5093671;28;20423;-54
2023/01/08 03:38:00;;;;;;;5.80;5.20;;;8.50;99.90;;;;;;5093571;28;20930;-54
2023/01/08 03:40:32;;;;;;;6.80;5.30;;;8.50;99.90;;;;;;5091670;28;20486;-54
2023/01/08 03:43:00;;;;;;;5.57;4.63;;;8.60;99.90;;;;;;5093359;28;20461;-53
2023/01/08 03:45:30;;;;;;;7.33;4.80;;;8.60;99.90;;;;;;5093527;28;20582;-54
2023/01/08 03:48:01;;;;;;;7.73;5.73;;;8.50;99.90;;;;;;5091219;28;20994;-54
2023/01/08 03:50:30;;;;;;;5.90;5.40;;;8.60;99.90;;;;;;5093303;28;20473;-54
2023/01/08 03:52:57;;;;;;;5.73;4.80;;;8.60;99.90;;;;;;5093255;28;20483;-54
2023/01/08 03:55:24;;;;;;;6.53;5.30;;;8.70;99.90;;;;;;5091239;28;20444;-53
2023/01/08 03:57:51;;;;;;;7.23;5.60;;;8.70;99.90;;;;;;5093496;28;20534;-54
2023/01/08 04:00:20;;;;;;;10.03;4.80;;;8.70;99.90;;;;;;5093228;28;20543;-54
2023/01/08 04:02:47;;;;;;;6.03;5.33;;;8.70;99.90;;;;;;5091163;28;20444;-54
2023/01/08 04:05:14;;;;;;;9.50;5.10;;;8.70;99.90;;;;;;5093492;28;20538;-53
2023/01/08 04:07:41;;;;;;;5.00;4.60;;;8.60;99.90;;;;;;5093167;28;20451;-54
2023/01/08 04:10:10;;;;;;;6.13;5.53;;;8.60;99.90;;;;;;5090931;28;20463;-54
2023/01/08 04:12:37;;;;;;;7.03;5.83;;;8.70;99.90;;;;;;5092948;28;20521;-53
2023/01/08 04:15:05;;;;;;;6.27;5.77;;;8.70;99.90;;;;;;5092604;28;20785;-54
2023/01/08 04:17:33;;;;;;;5.57;5.07;;;8.70;99.90;;;;;;5091220;28;20839;-54
2023/01/08 04:20:00;;;;;;;7.60;5.60;;;8.70;99.90;;;;;;5092874;28;20471;-54
2023/01/08 04:22:30;;;;;;;5.03;4.53;;;8.60;99.90;;;;;;5093002;28;20803;-54
2023/01/08 04:24:57;;;;;;;6.60;5.47;;;8.50;99.90;;;;;;5091075;28;20447;-55
2023/01/08 04:27:27;;;;;;;6.50;5.50;;;8.50;99.90;;;;;;5092778;28;20447;-54
2023/01/08 04:29:57;;;;;;;6.10;5.60;;;8.50;99.90;;;;;;5092233;28;20543;-54
2023/01/08 04:32:25;;;;;;;8.13;5.80;;;8.50;99.90;;;;;;5091119;28;20479;-54
2023/01/08 04:34:53;;;;;;;6.33;5.70;;;8.50;99.90;;;;;;5092767;28;20448;-53
2023/01/08 04:37:23;;;;;;;5.40;4.87;;;8.50;99.90;;;;;;5092528;28;20454;-54
2023/01/08 04:39:50;;;;;;;5.30;4.90;;;8.50;99.90;;;;;;5090432;28;20467;-54
2023/01/08 04:42:17;;;;;;;6.07;5.30;;;8.60;99.90;;;;;;5092856;28;20446;-54
2023/01/08 04:44:44;;;;;;;5.37;4.80;;;8.60;99.90;;;;;;5092401;28;20986;-53
2023/01/08 04:47:12;;;;;;;5.13;4.70;;;8.70;99.90;;;;;;5090504;28;20497;-54
2023/01/08 04:49:43;;;;;;;5.27;4.77;;;8.60;99.90;;;;;;5091727;28;20447;-54
2023/01/08 04:52:12;;;;;;;6.70;5.00;;;8.60;99.90;;;;;;5092216;28;20479;-54
2023/01/08 04:54:39;;;;;;;4.90;4.20;;;8.70;99.90;;;;;;5090766;28;20459;-54
2023/01/08 04:57:06;;;;;;;5.33;3.90;;;8.80;99.90;;;;;;5092507;28;20447;-53
2023/01/08 04:59:33;;;;;;;5.40;4.00;;;9.10;99.90;;;;;;5092701;28;20451;-53
2023/01/08 05:02:00;;;;;;;5.10;4.60;;;9.40;99.90;;;;;;5090263;28;20432;-53
2023/01/08 05:04:27;;;;;;;5.10;3.90;;;9.60;99.90;;;;;;5092116;28;20454;-53
2023/01/08 05:06:54;;;;;;;4.87;3.70;;;9.70;99.90;;;;;;5092511;28;20459;-54
2023/01/08 05:09:23;;;;;;;4.87;3.70;;;9.70;99.90;;;;;;5090327;28;20815;-54
2023/01/08 05:11:50;;;;;;;3.63;3.33;;;9.80;99.90;;;;;;5092182;28;20478;-54
2023/01/08 05:14:17;;;;;;;3.97;3.50;;;9.80;99.90;;;;;;5092043;28;20466;-54
2023/01/08 05:16:44;;;;;;;3.23;3.03;;;9.90;99.90;;;;;;5090485;28;20466;-53
2023/01/08 05:19:11;;;;;;;3.63;3.23;;;9.90;99.90;;;;;;5092197;28;20926;-54
2023/01/08 05:21:38;;;;;;;3.70;3.40;;;9.90;99.90;;;;;;5092552;28;20645;-54
2023/01/08 05:24:06;;;;;;;3.37;3.07;;;9.90;99.90;;;;;;5090498;28;20522;-53
2023/01/08 05:26:34;;;;;;;3.80;3.07;;;9.90;99.90;;;;;;5092091;28;20451;-54
2023/01/08 05:29:01;;;;;;;3.07;2.60;;;9.90;99.90;;;;;;5092366;28;20440;-54
2023/01/08 05:31:29;;;;;;;3.80;3.40;;;9.90;99.90;;;;;;5089870;28;20487;-54
2023/01/08 05:33:57;;;;;;;2.87;2.67;;;9.90;99.90;;;;;;5092558;28;20443;-54
2023/01/08 05:36:24;;;;;;;2.30;2.10;;;9.90;99.90;;;;;;5092316;28;20453;-54
2023/01/08 05:38:52;;;;;;;2.80;2.50;;;10.00;99.90;;;;;;5090499;28;20451;-53
2023/01/08 05:41:19;;;;;;;3.20;2.53;;;9.90;99.90;;;;;;5091982;28;20463;-53
2023/01/08 05:43:47;;;;;;;2.47;2.27;;;9.90;99.90;;;;;;5092373;28;20808;-54
2023/01/08 05:46:14;;;;;;;3.30;2.43;;;10.00;99.90;;;;;;5089931;28;20497;-54
2023/01/08 05:48:41;;;;;;;3.03;2.17;;;10.00;99.90;;;;;;5095752;28;20958;-54
2023/01/08 05:51:08;;;;;;;2.50;2.27;;;10.00;99.90;;;;;;5095679;28;20596;-54
2023/01/08 05:53:36;;;;;;;2.83;2.03;;;10.00;99.90;;;;;;5093469;28;20479;-53
2023/01/08 05:56:04;;;;;;;2.13;1.93;;;9.90;99.90;;;;;;5095738;28;20447;-54
2023/01/08 05:58:32;;;;;;;2.73;2.40;;;9.90;99.90;;;;;;5095571;28;20447;-54
2023/01/08 06:01:05;;;;;;;2.57;2.37;;;9.90;99.90;;;;;;5093368;28;20474;-54
2023/01/08 06:03:32;;;;;;;2.20;2.10;;;9.80;99.90;;;;;;5095749;28;20784;-54
2023/01/08 06:06:00;;;;;;;2.10;2.00;;;9.80;99.90;;;;;;5095042;28;20457;-53
2023/01/08 06:08:28;;;;;;;2.63;2.43;;;9.70;99.90;;;;;;5093946;28;20462;-54
2023/01/08 06:10:58;;;;;;;2.27;2.07;;;9.70;99.90;;;;;;5095068;28;20993;-54
2023/01/08 06:13:25;;;;;;;2.30;2.10;;;9.60;99.90;;;;;;5095280;28;20475;-54
2023/01/08 06:15:53;;;;;;;2.53;2.33;;;9.60;99.90;;;;;;5093430;28;20586;-54
2023/01/08 06:18:21;;;;;;;3.50;2.30;;;9.60;99.90;;;;;;5095195;28;20443;-53
2023/01/08 06:20:48;;;;;;;2.37;2.17;;;9.60;99.90;;;;;;5094697;28;20463;-54
2023/01/08 06:23:15;;;;;;;3.30;2.03;;;9.60;99.90;;;;;;5093437;28;20439;-54
2023/01/08 06:25:42;;;;;;;2.77;2.10;;;9.60;99.90;;;;;;5094378;28;20455;-54
2023/01/08 06:28:10;;;;;;;1.80;1.70;;;9.60;99.90;;;;;;5095010;28;20458;-53
2023/01/08 06:30:37;;;;;;;2.30;2.10;;;9.60;99.90;;;;;;5092678;28;20973;-54
2023/01/08 06:33:04;;;;;;;2.00;1.70;;;9.70;99.90;;;;;;5094938;28;20907;-54
2023/01/08 06:35:32;;;;;;;2.33;1.97;;;9.70;99.90;;;;;;5094800;28;20474;-53
2023/01/08 06:37:59;;;;;;;2.50;2.00;;;9.70;99.90;;;;;;5093185;28;20586;-53
2023/01/08 06:40:26;;;;;;;2.37;1.97;;;9.70;99.90;;;;;;5094523;28;20471;-54
2023/01/08 06:42:54;;;;;;;2.60;1.93;;;9.70;99.90;;;;;;5095013;28;20443;-54
2023/01/08 06:45:21;;;;;;;1.90;1.80;;;9.80;99.90;;;;;;5092687;28;20519;-53
2023/01/08 06:47:48;;;;;;;1.87;1.77;;;9.80;99.90;;;;;;5094369;28;20424;-53
2023/01/08 06:50:15;;;;;;;2.40;2.20;;;9.80;99.90;;;;;;5094342;28;20965;-54
2023/01/08 06:52:43;;;;;;;2.63;1.90;;;9.80;99.90;;;;;;5092532;28;20478;-54
2023/01/08 06:55:11;;;;;;;3.40;1.87;;;9.80;99.90;;;;;;5094324;28;20864;-54
2023/01/08 06:57:40;;;;;;;2.07;1.90;;;9.80;99.90;;;;;;5093807;28;20448;-54
2023/01/08 07:00:08;;;;;;;2.30;2.10;;;9.80;99.90;;;;;;5091812;28;20471;-54
2023/01/08 07:02:36;;;;;;;2.20;2.10;;;9.80;99.90;;;;;;5093990;28;20442;-53
2023/01/08 07:05:03;;;;;;;2.20;2.00;;;9.70;99.90;;;;;;5094551;28;20458;-53
2023/01/08 07:07:30;;;;;;;1.90;1.70;;;9.70;99.90;;;;;;5092514;28;20459;-53
2023/01/08 07:09:58;;;;;;;1.90;1.63;;;9.70;99.90;;;;;;5093799;28;20550;-54
2023/01/08 07:12:25;;;;;;;2.03;1.83;;;9.60;99.90;;;;;;5094202;28;20475;-54
2023/01/08 07:14:53;;;;;;;2.03;1.80;;;9.60;99.90;;;;;;5091980;28;20934;-53
2023/01/08 07:17:20;;;;;;;2.27;2.07;;;9.60;99.90;;;;;;5093985;28;20459;-53
2023/01/08 07:19:47;;;;;;;2.40;2.20;;;9.50;99.90;;;;;;5094282;28;20467;-54
2023/01/08 07:22:14;;;;;;;1.90;1.80;;;9.50;99.90;;;;;;5091845;28;20450;-54
2023/01/08 07:24:41;;;;;;;2.17;1.97;;;9.50;99.90;;;;;;5093855;28;20447;-54
2023/01/08 07:27:10;;;;;;;2.27;2.07;;;9.50;99.90;;;;;;5094069;28;20534;-54
2023/01/08 07:29:37;;;;;;;2.17;1.97;;;9.50;99.90;;;;;;5091948;28;20439;-54
2023/01/08 07:32:04;;;;;;;2.87;1.70;;;9.50;99.90;;;;;;5093718;28;20487;-54
2023/01/08 07:34:33;;;;;;;3.47;2.10;;;9.40;99.90;;;;;;5093907;28;20835;-54
2023/01/08 07:37:00;;;;;;;2.03;1.93;;;9.40;99.90;;;;;;5091220;28;20451;-54
2023/01/08 07:39:27;;;;;;;3.37;2.20;;;9.30;99.90;;;;;;5093802;28;20507;-54
2023/01/08 07:41:55;;;;;;;2.00;1.80;;;9.30;99.90;;;;;;5093470;28;20949;-54
2023/01/08 07:44:23;;;;;;;1.90;1.80;;;9.20;99.90;;;;;;5091555;28;20451;-54
2023/01/08 07:46:50;;;;;;;2.40;2.20;;;9.20;99.90;;;;;;5093348;28;20478;-55
2023/01/08 07:49:18;;;;;;;2.30;2.10;;;9.20;99.90;;;;;;5093679;28;20518;-54
2023/01/08 07:51:45;;;;;;;2.73;2.30;;;9.10;99.90;;;;;;5091079;28;21029;-54
2023/01/08 07:54:12;;;;;;;2.10;2.00;;;9.10;99.90;;;;;;5092770;28;20470;-55
2023/01/08 07:56:39;;;;;;;2.90;1.70;;;9.10;99.90;;;;;;5093028;28;20945;-54
2023/01/08 07:59:06;;;;;;;2.47;2.27;;;9.10;99.90;;;;;;5091407;28;20547;-55
2023/01/08 08:01:34;;;;;;;1.90;1.77;;;9.10;99.90;;;;;;5092982;28;20962;-54
2023/01/08 08:04:02;;;;;;;1.93;1.70;;;9.10;99.90;;;;;;5093408;28;20439;-55
2023/01/08 08:06:29;;;;;;;2.40;2.20;;;9.10;99.90;;;;;;5091404;28;20456;-55
2023/01/08 08:08:58;;;;;;;2.00;1.90;;;9.10;99.90;;;;;;5093034;28;20459;-55
2023/01/08 08:11:25;;;;;;;2.00;1.90;;;9.20;99.90;;;;;;5092958;28;20471;-55
2023/01/08 08:13:52;;;;;;;2.10;1.90;;;9.20;99.90;;;;;;5091196;28;20479;-55
2023/01/08 08:16:20;;;;;;;1.90;1.73;;;9.10;99.90;;;;;;5093042;28;20454;-55
2023/01/08 08:18:48;;;;;;;1.90;1.80;;;9.10;99.90;;;;;;5092711;28;20914;-54
2023/01/08 08:21:15;;;;;;;2.00;1.90;;;9.10;99.90;;;;;;5091179;28;20470;-55
2023/01/08 08:23:42;;;;;;;2.10;1.90;;;9.10;99.90;;;;;;5092701;28;20530;-54
2023/01/08 08:26:09;;;;;;;1.77;1.67;;;9.20;99.90;;;;;;5092807;28;20451;-55
2023/01/08 08:28:37;;;;;;;2.43;2.17;;;9.10;99.90;;;;;;5091168;28;20576;-54
2023/01/08 08:31:04;;;;;;;2.47;2.27;;;9.10;99.90;;;;;;5092716;28;20520;-54
2023/01/08 08:33:31;;;;;;;2.20;2.00;;;9.10;99.90;;;;;;5092637;28;20486;-54
2023/01/08 08:35:59;;;;;;;2.50;2.03;;;9.10;99.90;;;;;;5090927;28;20655;-54
2023/01/08 08:38:27;;;;;;;2.20;2.00;;;9.10;99.90;;;;;;5092694;28;20455;-54
2023/01/08 08:40:54;;;;;;;2.23;2.03;;;9.10;99.90;;;;;;5092433;28;20810;-54
2023/01/08 08:43:21;;;;;;;2.60;2.40;;;9.10;99.90;;;;;;5090749;28;20993;-54
2023/01/08 08:45:48;;;;;;;2.37;2.17;;;9.10;99.90;;;;;;5092485;28;20518;-54
2023/01/08 08:48:16;;;;;;;2.60;2.00;;;9.10;99.90;;;;;;5092773;28;20451;-54
2023/01/08 08:50:43;;;;;;;1.93;1.83;;;9.10;99.90;;;;;;5090691;28;20467;-54
2023/01/08 08:53:11;;;;;;;2.30;1.87;;;9.10;99.90;;;;;;5092236;28;20993;-54
2023/01/08 08:55:38;;;;;;;2.27;1.90;;;9.10;99.90;;;;;;5092325;28;20950;-55
2023/01/08 08:58:09;;;;;;;2.57;2.23;;;9.10;99.90;;;;;;5090631;28;20812;-54
2023/01/08 09:00:36;;;;;;;2.30;2.10;;;9.20;99.90;;;;;;5092444;28;20804;-54
2023/01/08 09:03:03;;;;;;;2.23;2.03;;;9.10;99.90;;;;;;5092401;28;20827;-54
2023/01/08 09:05:31;;;;;;;2.40;2.20;;;9.10;99.90;;;;;;5090912;28;20443;-54
2023/01/08 09:07:58;;;;;;;1.87;1.77;;;9.20;99.90;;;;;;5092240;28;20933;-55
2023/01/08 09:10:26;;;;;;;3.30;2.33;;;9.20;99.90;;;;;;5092545;28;20471;-54
2023/01/08 09:12:54;;;;;;;2.20;2.00;;;9.20;99.90;;;;;;5090619;28;21037;-54
2023/01/08 09:15:21;;;;;;;2.63;1.70;;;9.10;99.90;;;;;;5091811;28;20927;-54
2023/01/08 09:17:53;;;;;;;2.33;2.10;;;9.20;99.90;;;;;;5092172;28;20450;-55
2023/01/08 09:20:21;;;;;;;2.67;1.70;;;9.20;99.90;;;;;;5090393;28;21146;-54
2023/01/08 09:22:48;;;;;;;2.80;2.00;;;9.20;99.90;;;;;;5095386;28;20438;-54
2023/01/08 09:25:16;;;;;;;2.50;2.30;;;9.30;99.90;;;;;;5095650;28;20451;-54
2023/01/08 09:27:45;;;;;;;3.17;2.27;;;9.30;99.90;;;;;;5102601;28;20447;-54
2023/01/08 09:30:13;;;;;;;2.23;2.00;;;9.30;99.90;;;;;;5115592;28;20641;-54
2023/01/08 09:32:40;;;;;;;2.73;2.43;;;9.30;99.90;;;;;;5114056;28;20822;-54
2023/01/08 09:35:08;;;;;;;2.33;2.03;;;9.40;99.90;;;;;;5106187;28;21115;-54
2023/01/08 09:37:35;;;;;;;2.77;2.57;;;9.40;99.90;;;;;;5114685;28;20462;-52
2023/01/08 09:40:03;;;;;;;2.80;2.50;;;9.50;99.90;;;;;;5112796;28;20480;-55
2023/01/08 09:42:31;;;;;;;2.30;2.07;;;9.50;99.90;;;;;;5112944;28;20894;-54
2023/01/08 09:45:02;;;;;;;2.40;2.20;;;9.50;99.90;;;;;;5115402;28;20472;-57
2023/01/08 09:47:32;;;;;;;2.20;2.00;;;9.50;99.90;;;;;;5109895;28;20431;-56
2023/01/08 09:50:03;;;;;;;5.83;1.80;;;9.50;99.90;;;;;;5113812;28;20761;-56
2023/01/08 09:52:31;;;;;;;1.90;1.70;;;9.50;99.90;;;;;;5115803;28;20458;-56
2023/01/08 09:54:58;;;;;;;2.80;1.77;;;9.50;99.90;;;;;;5114807;28;20447;-54
2023/01/08 09:57:26;;;;;;;4.13;1.90;;;9.60;99.90;;;;;;5112358;28;20462;-55
2023/01/08 09:59:53;;;;;;;2.70;1.80;;;9.60;99.90;;;;;;5112409;28;20891;-55
2023/01/08 10:02:23;;;;;;;1.70;1.60;;;9.60;99.90;;;;;;5113333;28;20537;-55
2023/01/08 10:04:55;;;;;;;2.23;2.03;;;9.60;99.90;;;;;;5095249;28;20906;-55
2023/01/08 10:07:24;;;;;;;2.27;2.07;;;9.70;99.90;;;;;;5110915;28;20836;-55
2023/01/08 10:09:52;;;;;;;3.00;1.93;;;9.70;99.90;;;;;;5112705;28;20570;-55
2023/01/08 10:12:27;;;;;;;2.20;2.00;;;9.70;99.90;;;;;;5113484;28;20447;-55
2023/01/08 10:14:56;;;;;;;2.07;1.83;;;9.70;99.90;;;;;;5101629;28;20467;-57
2023/01/08 10:17:34;;;;;;;2.10;1.90;;;9.70;99.90;;;;;;5110588;28;20876;-55
2023/01/08 10:20:02;;;;;;;2.17;2.00;;;9.80;99.90;;;;;;5113309;28;20949;-55
2023/01/08 10:22:33;;;;;;;2.13;1.90;;;9.80;99.90;;;;;;5106785;28;20609;-56
2023/01/08 10:25:07;;;;;;;3.43;2.40;;;9.80;99.90;;;;;;5108799;28;20480;-56
2023/01/08 10:27:45;;;;;;;2.13;1.93;;;9.80;99.90;;;;;;5112197;28;20464;-55
2023/01/08 10:30:16;;;;;;;2.13;2.00;;;9.80;99.90;;;;;;5115335;28;20460;-56
2023/01/08 10:32:51;;;;;;;2.50;1.87;;;9.90;99.90;;;;;;5113941;28;20525;-55
2023/01/08 10:35:22;;;;;;;2.63;1.97;;;9.90;99.90;;;;;;5110486;28;20530;-55
2023/01/08 10:37:50;;;;;;;2.20;1.80;;;10.00;99.90;;;;;;5114884;28;20454;-56
2023/01/08 10:40:29;;;;;;;1.77;1.67;;;10.00;99.90;;;;;;5114264;28;20469;-57
2023/01/08 10:42:58;;;;;;;2.37;2.00;;;10.10;99.90;;;;;;5112665;28;20450;-55
2023/01/08 10:45:28;;;;;;;1.90;1.80;;;10.10;99.90;;;;;;5112519;28;20486;-55
2023/01/08 10:48:00;;;;;;;1.80;1.70;;;10.10;99.90;;;;;;5114707;28;20433;-57
2023/01/08 10:50:29;;;;;;;2.00;1.90;;;10.10;99.90;;;;;;5112786;28;20466;-56
2023/01/08 10:52:57;;;;;;;1.97;1.80;;;10.10;99.90;;;;;;5114032;28;20538;-55
2023/01/08 10:55:26;;;;;;;1.90;1.80;;;10.20;99.90;;;;;;5113913;28;20466;-54
2023/01/08 10:57:58;;;;;;;3.97;1.77;;;10.20;99.90;;;;;;5112045;28;20481;-55
2023/01/08 11:00:27;;;;;;;2.20;2.00;;;10.20;99.90;;;;;;5114053;28;20466;-54
2023/01/08 11:02:58;;;;;;;1.90;1.67;;;10.20;99.90;;;;;;5114393;28;20469;-55
2023/01/08 11:05:36;;;;;;;2.23;1.70;;;10.30;99.90;;;;;;5111685;28;20455;-55
2023/01/08 11:08:07;;;;;;;1.93;1.83;;;10.30;99.90;;;;;;5114128;28;20853;-54
2023/01/08 11:10:36;;;;;;;1.70;1.60;;;10.30;99.90;;;;;;5114495;28;20558;-54
2023/01/08 11:13:06;;;;;;;2.00;1.83;;;10.40;99.90;;;;;;5112120;28;20505;-55
2023/01/08 11:15:38;;;;;;;3.37;1.80;;;10.50;99.90;;;;;;5113512;28;20458;-55
2023/01/08 11:18:23;;;;;;;1.60;1.50;;;10.40;99.90;;;;;;5114163;28;20435;-55
2023/01/08 11:20:51;;;;;;;1.90;1.70;;;10.40;99.90;;;;;;5110975;28;20980;-55
2023/01/08 11:23:21;;;;;;;1.80;1.70;;;10.50;99.90;;;;;;5113434;28;20451;-55
2023/01/08 11:25:57;;;;;;;2.30;2.10;;;10.60;99.90;;;;;;5113735;28;20521;-55
2023/01/08 11:28:31;;;;;;;1.70;1.60;;;10.50;99.90;;;;;;5113394;28;20430;-55
2023/01/08 11:31:09;;;;;;;1.93;1.83;;;10.60;99.90;;;;;;5114032;28;20563;-55
2023/01/08 11:33:40;;;;;;;1.80;1.70;;;10.50;99.90;;;;;;5110912;28;20887;-55
2023/01/08 11:36:13;;;;;;;1.80;1.70;;;10.60;99.90;;;;;;5114236;28;20493;-55
2023/01/08 11:38:40;;;;;;;1.63;1.53;;;10.60;99.90;;;;;;5113953;28;20954;-55
2023/01/08 11:41:25;;;;;;;1.70;1.60;;;10.50;99.90;;;;;;5111525;28;20474;-55
2023/01/08 11:44:11;;;;;;;2.27;1.70;;;10.60;99.90;;;;;;5103410;28;20450;-55
2023/01/08 11:46:46;;;;;;;1.67;1.57;;;10.70;99.90;;;;;;5113340;28;20558;-55
2023/01/08 11:49:40;;;;;;;1.87;1.53;;;10.60;99.90;;;;;;5111829;28;20427;-55
2023/01/08 11:52:23;;;;;;;1.53;1.43;;;10.60;99.90;;;;;;5100914;28;20941;-55
2023/01/08 11:55:21;;;;;;;2.00;1.70;;;10.70;99.90;;;;;;5113180;28;20473;-56
2023/01/08 11:57:59;;;;;;;1.87;1.60;;;10.80;99.90;;;;;;5107748;28;20454;-53
2023/01/08 12:00:45;;;;;;;1.80;1.70;;;10.70;99.90;;;;;;5112456;28;20532;-58
2023/01/08 12:03:22;;;;;;;2.23;2.07;;;10.70;99.90;;;;;;5111249;28;20951;-57
2023/01/08 12:05:56;;;;;;;2.97;1.80;;;10.80;99.90;;;;;;5113474;28;20951;-54
2023/01/08 12:08:29;;;;;;;1.90;1.70;;;10.70;99.90;;;;;;5112379;28;20932;-56
2023/01/08 12:11:06;;;;;;;1.77;1.67;;;10.80;99.90;;;;;;5111422;28;20816;-50
2023/01/08 12:13:47;;;;;;;2.33;1.77;;;10.70;99.90;;;;;;5113377;28;20473;-51
2023/01/08 12:16:29;;;;;;;2.60;1.80;;;10.70;99.90;;;;;;5113042;28;20427;-53
2023/01/08 12:19:23;;;;;;;2.73;2.37;;;10.70;99.90;;;;;;5110554;28;20466;-54
2023/01/08 12:22:16;;;;;;;1.63;1.53;;;10.60;99.90;;;;;;5112691;28;20435;-55
2023/01/08 12:25:08;;;;;;;2.03;1.60;;;10.70;99.90;;;;;;5113385;28;20423;-54
2023/01/08 12:27:43;;;;;;;1.50;1.40;;;10.60;99.90;;;;;;5111909;28;20465;-51
2023/01/08 12:30:24;;;;;;;1.90;1.80;;;10.60;99.90;;;;;;5112911;28;20557;-52
2023/01/08 12:32:56;;;;;;;1.73;1.63;;;10.60;99.90;;;;;;5111107;28;20449;-51
2023/01/08 12:35:28;;;;;;;2.00;1.80;;;10.60;99.90;;;;;;5112240;28;20546;-55
2023/01/08 12:38:02;;;;;;;1.70;1.47;;;10.60;99.90;;;;;;5111433;28;20467;-55
2023/01/08 12:40:33;;;;;;;1.60;1.50;;;10.60;99.90;;;;;;5110927;28;20465;-52
2023/01/08 12:43:05;;;;;;;1.50;1.33;;;10.60;99.90;;;;;;5110419;28;20458;-52
2023/01/08 12:45:36;;;;;;;1.80;1.70;;;10.60;99.90;;;;;;5112290;28;21081;-52
2023/01/08 12:48:07;;;;;;;2.10;1.30;;;10.60;99.90;;;;;;5109694;28;20928;-52
2023/01/08 12:50:49;;;;;;;1.60;1.50;;;10.60;99.90;;;;;;5096376;28;20465;-52
2023/01/08 12:53:26;;;;;;;1.53;1.43;;;10.70;99.90;;;;;;5110752;28;20469;-52
2023/01/08 12:56:05;;;;;;;2.03;1.77;;;10.70;99.90;;;;;;5111338;28;20454;-54
2023/01/08 12:58:41;;;;;;;1.97;1.43;;;10.70;99.90;;;;;;5115143;28;20430;-52
2023/01/08 13:01:22;;;;;;;2.03;1.77;;;10.70;99.90;;;;;;5116704;28;20975;-52
2023/01/08 13:03:50;;;;;;;1.70;1.60;;;10.70;99.90;;;;;;5110861;28;20446;-52
2023/01/08 13:06:19;;;;;;;1.70;1.50;;;10.70;99.90;;;;;;5116627;28;20451;-52
2023/01/08 13:08:50;;;;;;;1.73;1.40;;;10.70;99.90;;;;;;5116857;28;20454;-52
2023/01/08 13:11:29;;;;;;;1.63;1.40;;;10.70;99.90;;;;;;5113771;28;20486;-52